Time;durP1;ratioP1;P1;durP2;ratioP2;P2;SDS_P1;SDS_P2;PMS_P1;PMS_P2;Temp;Humidity;BMP_temperature;BMP_pressure;BME280_temperature;BME280_humidity;BME280_pressure;Samples;Min_cycle;Max_cycle;Signal;HPM_P1;HPM_P2
2022/02/21 00:01:00;;;;;;;8.73;6.80;;;;;;;;;;10536568;28;20051;-64
2022/02/21 00:06:00;;;;;;;10.63;6.22;;;;;;;;;;10536872;28;20348;-63
2022/02/21 00:11:02;;;;;;;11.20;6.40;;;;;;;;;;10535348;28;20028;-63
2022/02/21 00:16:02;;;;;;;9.73;6.28;;;;;;;;;;10536172;28;20445;-64
2022/02/21 00:21:02;;;;;;;11.03;6.37;;;;;;;;;;10535968;28;20028;-63
2022/02/21 00:26:03;;;;;;;10.73;5.50;;;;;;;;;;10536527;28;20983;-63
2022/02/21 00:31:03;;;;;;;8.03;5.80;;;;;;;;;;10535929;28;20083;-63
2022/02/21 00:36:04;;;;;;;8.63;5.90;;;;;;;;;;10535712;28;20436;-63
2022/02/21 00:41:05;;;;;;;9.98;6.10;;;;;;;;;;10535903;28;20785;-63
2022/02/21 00:46:05;;;;;;;9.43;6.05;;;;;;;;;;10535453;28;20241;-64
2022/02/21 00:51:06;;;;;;;10.07;5.90;;;;;;;;;;10532160;28;20024;-64
2022/02/21 00:56:06;;;;;;;7.73;5.60;;;;;;;;;;10531889;28;20480;-64
2022/02/21 01:01:06;;;;;;;10.00;5.93;;;;;;;;;;10534226;28;20473;-64
2022/02/21 01:06:07;;;;;;;8.90;5.87;;;;;;;;;;10534555;28;20467;-64
2022/02/21 01:11:07;;;;;;;8.97;5.40;;;;;;;;;;10534491;28;20111;-62
2022/02/21 01:16:07;;;;;;;7.55;5.35;;;;;;;;;;10534169;28;20445;-63
2022/02/21 01:21:09;;;;;;;8.70;5.43;;;;;;;;;;10534235;28;20475;-66
2022/02/21 01:26:09;;;;;;;7.30;4.88;;;;;;;;;;10534413;28;20452;-65
2022/02/21 01:31:10;;;;;;;8.20;5.53;;;;;;;;;;10534219;28;20088;-65
2022/02/21 01:36:10;;;;;;;7.57;5.50;;;;;;;;;;10533173;28;20024;-63
2022/02/21 01:41:10;;;;;;;8.37;5.63;;;;;;;;;;10533755;28;20476;-63
2022/02/21 01:46:11;;;;;;;12.00;5.50;;;;;;;;;;10533130;28;20452;-64
2022/02/21 01:51:11;;;;;;;9.17;5.50;;;;;;;;;;10533162;28;20032;-63
2022/02/21 01:56:11;;;;;;;8.48;5.03;;;;;;;;;;10525749;28;20472;-63
2022/02/21 02:01:12;;;;;;;9.43;5.60;;;;;;;;;;10533939;28;20144;-63
2022/02/21 02:06:13;;;;;;;7.90;5.22;;;;;;;;;;10533419;28;20395;-63
2022/02/21 02:11:13;;;;;;;7.82;5.55;;;;;;;;;;10531930;28;20024;-64
2022/02/21 02:16:14;;;;;;;7.33;5.37;;;;;;;;;;10532679;28;20024;-63
2022/02/21 02:21:26;;;;;;;7.93;5.20;;;;;;;;;;10532315;28;20475;-63
2022/02/21 02:26:26;;;;;;;7.68;4.68;;;;;;;;;;10533099;28;20051;-63
2022/02/21 02:31:26;;;;;;;7.33;5.10;;;;;;;;;;10532589;28;20035;-63
2022/02/21 02:36:27;;;;;;;8.67;4.90;;;;;;;;;;10539261;28;20479;-64
2022/02/21 02:41:27;;;;;;;5.60;4.50;;;;;;;;;;10540170;28;20476;-66
2022/02/21 02:46:28;;;;;;;9.83;4.80;;;;;;;;;;10540201;28;20024;-66
2022/02/21 02:51:29;;;;;;;7.33;5.20;;;;;;;;;;10540009;28;20102;-65
2022/02/21 02:56:29;;;;;;;8.23;4.50;;;;;;;;;;10536787;28;20062;-63
2022/02/21 03:01:29;;;;;;;5.93;4.83;;;;;;;;;;10540298;28;20399;-65
2022/02/21 03:06:30;;;;;;;7.77;5.17;;;;;;;;;;10536307;28;20528;-64
2022/02/21 03:11:30;;;;;;;5.77;4.10;;;;;;;;;;10539160;28;20429;-65
2022/02/21 03:16:31;;;;;;;8.18;4.95;;;;;;;;;;10539447;28;20441;-63
2022/02/21 03:21:31;;;;;;;5.93;4.55;;;;;;;;;;10539087;28;20081;-65
2022/02/21 03:26:32;;;;;;;5.70;4.60;;;;;;;;;;10538586;28;20123;-64
2022/02/21 03:31:32;;;;;;;6.32;4.68;;;;;;;;;;10538183;28;20239;-64
2022/02/21 03:36:33;;;;;;;6.17;4.50;;;;;;;;;;10538429;28;20024;-64
2022/02/21 03:41:34;;;;;;;4.83;4.23;;;;;;;;;;10537824;28;20121;-65
2022/02/21 03:46:37;;;;;;;6.53;4.93;;;;;;;;;;10537629;28;20445;-63
2022/02/21 03:51:38;;;;;;;5.80;4.50;;;;;;;;;;10536636;28;20075;-63
2022/02/21 03:56:39;;;;;;;7.57;4.35;;;;;;;;;;10537585;28;20024;-64
2022/02/21 04:01:39;;;;;;;7.40;4.97;;;;;;;;;;10536935;28;20399;-64
2022/02/21 04:06:40;;;;;;;7.27;4.63;;;;;;;;;;10533714;28;20494;-63
2022/02/21 04:11:40;;;;;;;7.55;4.53;;;;;;;;;;10533847;28;20111;-64
2022/02/21 04:16:41;;;;;;;7.13;4.80;;;;;;;;;;10536475;28;20051;-64
2022/02/21 04:21:41;;;;;;;5.83;4.30;;;;;;;;;;10536613;28;20456;-63
2022/02/21 04:26:41;;;;;;;4.83;4.17;;;;;;;;;;10536088;28;20441;-63
2022/02/21 04:31:42;;;;;;;6.37;4.13;;;;;;;;;;10535939;28;20020;-65
2022/02/21 04:36:42;;;;;;;7.13;4.20;;;;;;;;;;10534565;28;20943;-66
2022/02/21 04:41:42;;;;;;;5.97;4.60;;;;;;;;;;10535539;28;20038;-64
2022/02/21 04:46:43;;;;;;;5.93;4.28;;;;;;;;;;10535270;28;20034;-65
2022/02/21 04:51:43;;;;;;;4.40;4.00;;;;;;;;;;10534996;28;20024;-66
2022/02/21 04:56:44;;;;;;;8.10;4.40;;;;;;;;;;10534824;28;20028;-67
2022/02/21 05:01:44;;;;;;;5.77;4.37;;;;;;;;;;10534830;28;20044;-67
2022/02/21 05:06:44;;;;;;;7.30;4.70;;;;;;;;;;10534564;28;20395;-65
2022/02/21 05:11:45;;;;;;;8.07;4.53;;;;;;;;;;10531508;28;20454;-66
2022/02/21 05:16:45;;;;;;;4.50;4.10;;;;;;;;;;10534281;28;20471;-67
2022/02/21 05:21:46;;;;;;;5.22;4.05;;;;;;;;;;10531374;28;20383;-66
2022/02/21 05:26:46;;;;;;;8.20;4.30;;;;;;;;;;10534216;28;20472;-66
2022/02/21 05:31:47;;;;;;;8.00;4.25;;;;;;;;;;10534181;28;20376;-67
2022/02/21 05:36:47;;;;;;;5.00;4.17;;;;;;;;;;10533619;28;20024;-64
2022/02/21 05:41:47;;;;;;;6.67;4.80;;;;;;;;;;10533520;28;20476;-64
2022/02/21 05:46:48;;;;;;;4.85;3.95;;;;;;;;;;10533193;28;20039;-63
2022/02/21 05:51:48;;;;;;;5.83;4.53;;;;;;;;;;10533194;28;20024;-67
2022/02/21 05:56:49;;;;;;;6.47;4.82;;;;;;;;;;10532833;28;20160;-67
2022/02/21 06:01:50;;;;;;;5.32;4.47;;;;;;;;;;10532770;28;20051;-67
2022/02/21 06:06:50;;;;;;;4.78;4.20;;;;;;;;;;10532494;28;20028;-67
2022/02/21 06:11:51;;;;;;;4.77;4.10;;;;;;;;;;10541048;28;20031;-65
2022/02/21 06:16:51;;;;;;;5.87;4.47;;;;;;;;;;10541816;28;21029;-63
2022/02/21 06:21:51;;;;;;;6.57;4.50;;;;;;;;;;10537796;28;20461;-66
2022/02/21 06:26:52;;;;;;;6.77;4.80;;;;;;;;;;10540816;28;20067;-64
2022/02/21 06:31:52;;;;;;;7.70;4.60;;;;;;;;;;10537852;28;20052;-68
2022/02/21 06:36:53;;;;;;;5.93;4.50;;;;;;;;;;10540326;28;20479;-66
2022/02/21 06:41:53;;;;;;;5.30;4.30;;;;;;;;;;10540217;28;20823;-67
2022/02/21 06:46:53;;;;;;;22.35;4.97;;;;;;;;;;10539793;28;20032;-63
2022/02/21 06:51:54;;;;;;;6.97;4.87;;;;;;;;;;10540216;28;20101;-67
2022/02/21 06:56:54;;;;;;;8.27;4.95;;;;;;;;;;10540232;28;21022;-67
2022/02/21 07:01:56;;;;;;;9.15;5.30;;;;;;;;;;10539037;28;20047;-68
2022/02/21 07:06:57;;;;;;;11.38;5.75;;;;;;;;;;10539418;28;20024;-68
2022/02/21 07:11:57;;;;;;;10.87;5.90;;;;;;;;;;10539286;28;20395;-67
2022/02/21 07:16:57;;;;;;;13.33;7.23;;;;;;;;;;10539104;28;20280;-64
2022/02/21 07:21:59;;;;;;;14.33;5.77;;;;;;;;;;10537967;28;20471;-63
2022/02/21 07:27:03;;;;;;;15.20;6.90;;;;;;;;;;10538510;28;20943;-61
2022/02/21 07:32:04;;;;;;;19.85;6.82;;;;;;;;;;10537967;28;20028;-67
2022/02/21 07:37:06;;;;;;;24.63;6.93;;;;;;;;;;10538198;28;20073;-61
2022/02/21 07:42:07;;;;;;;33.75;7.85;;;;;;;;;;10537910;28;20598;-62
2022/02/21 07:47:08;;;;;;;19.10;6.95;;;;;;;;;;10537047;28;20290;-62
2022/02/21 07:52:09;;;;;;;12.77;6.60;;;;;;;;;;10537755;28;20464;-61
2022/02/21 07:57:09;;;;;;;20.48;7.32;;;;;;;;;;10537369;28;20032;-68
2022/02/21 08:02:10;;;;;;;13.77;6.63;;;;;;;;;;10537889;28;20401;-68
2022/02/21 08:07:10;;;;;;;12.45;6.90;;;;;;;;;;10536849;28;20459;-67
2022/02/21 08:12:10;;;;;;;13.33;7.43;;;;;;;;;;10536892;28;20313;-62
2022/02/21 08:17:11;;;;;;;15.10;7.40;;;;;;;;;;10537134;28;20433;-62
2022/02/21 08:22:12;;;;;;;12.50;7.50;;;;;;;;;;10535014;28;20036;-62
2022/02/21 08:27:12;;;;;;;14.38;6.70;;;;;;;;;;10536135;28;20024;-68
2022/02/21 08:32:18;;;;;;;11.60;7.50;;;;;;;;;;10535208;28;20316;-66
2022/02/21 08:37:18;;;;;;;17.73;7.35;;;;;;;;;;10535873;28;20151;-67
2022/02/21 08:42:18;;;;;;;12.17;7.33;;;;;;;;;;10535594;28;20115;-68
2022/02/21 08:47:21;;;;;;;11.03;6.87;;;;;;;;;;10534292;28;20039;-64
2022/02/21 08:52:21;;;;;;;14.20;7.50;;;;;;;;;;10534710;28;20464;-65
2022/02/21 08:57:22;;;;;;;18.15;7.55;;;;;;;;;;10534865;28;20032;-68
2022/02/21 09:02:23;;;;;;;13.13;7.32;;;;;;;;;;10535394;28;20035;-68
2022/02/21 09:07:23;;;;;;;11.40;7.90;;;;;;;;;;10534708;28;20028;-62
2022/02/21 09:12:24;;;;;;;13.30;7.30;;;;;;;;;;10534397;28;20533;-65
2022/02/21 09:17:24;;;;;;;13.10;7.17;;;;;;;;;;10530927;28;20024;-63
2022/02/21 09:22:24;;;;;;;14.53;8.10;;;;;;;;;;10533818;28;20491;-62
2022/02/21 09:27:25;;;;;;;12.07;6.72;;;;;;;;;;10533405;28;20035;-63
2022/02/21 09:32:26;;;;;;;13.70;7.13;;;;;;;;;;10532083;28;20023;-65
2022/02/21 09:37:26;;;;;;;13.80;7.53;;;;;;;;;;10533101;28;20494;-64
2022/02/21 09:42:27;;;;;;;12.43;7.50;;;;;;;;;;10531059;28;20028;-62
2022/02/21 09:47:27;;;;;;;12.83;7.10;;;;;;;;;;10530369;28;20051;-61
2022/02/21 09:52:28;;;;;;;11.68;7.13;;;;;;;;;;10531020;28;20530;-63
2022/02/21 09:57:29;;;;;;;13.32;6.93;;;;;;;;;;10532569;28;20459;-62
2022/02/21 10:02:30;;;;;;;11.77;7.20;;;;;;;;;;10532973;28;20036;-66
2022/02/21 10:07:30;;;;;;;10.57;7.22;;;;;;;;;;10531625;28;20119;-63
2022/02/21 10:12:31;;;;;;;13.40;7.60;;;;;;;;;;10524374;28;20111;-62
2022/02/21 10:17:31;;;;;;;11.80;7.05;;;;;;;;;;10529697;28;20453;-68
2022/02/21 10:22:32;;;;;;;15.60;7.43;;;;;;;;;;10527000;28;20023;-66
2022/02/21 10:27:37;;;;;;;11.48;7.85;;;;;;;;;;10529875;28;20908;-63
2022/02/21 10:32:42;;;;;;;12.27;7.43;;;;;;;;;;10531923;28;20103;-65
2022/02/21 10:37:47;;;;;;;11.32;7.28;;;;;;;;;;10532190;28;20027;-62
2022/02/21 10:43:01;;;;;;;10.85;6.90;;;;;;;;;;10531489;28;20525;-62
2022/02/21 10:48:04;;;;;;;11.40;7.63;;;;;;;;;;10532334;28;20023;-62
2022/02/21 10:53:12;;;;;;;12.48;6.78;;;;;;;;;;10531770;28;20024;-61
2022/02/21 10:58:21;;;;;;;13.65;8.13;;;;;;;;;;10540101;28;20054;-62
2022/02/21 11:03:23;;;;;;;13.50;7.30;;;;;;;;;;10538139;28;20429;-62
2022/02/21 11:08:27;;;;;;;13.80;7.43;;;;;;;;;;10536806;28;20487;-62
2022/02/21 11:13:28;;;;;;;10.43;6.80;;;;;;;;;;10539708;28;20020;-62
2022/02/21 11:18:29;;;;;;;10.02;7.70;;;;;;;;;;10538948;28;20043;-62
2022/02/21 11:23:31;;;;;;;12.20;7.85;;;;;;;;;;10536711;28;20279;-63
2022/02/21 11:28:35;;;;;;;11.55;7.40;;;;;;;;;;10537110;28;20476;-65
2022/02/21 11:33:59;;;;;;;10.13;6.40;;;;;;;;;;10537046;28;20487;-62
2022/02/21 11:39:18;;;;;;;10.70;6.82;;;;;;;;;;10537083;28;20476;-65
2022/02/21 11:44:24;;;;;;;10.88;6.43;;;;;;;;;;10538403;28;20024;-62
2022/02/21 11:49:26;;;;;;;13.07;7.72;;;;;;;;;;10538201;28;20480;-64
2022/02/21 11:54:37;;;;;;;12.10;6.93;;;;;;;;;;10536820;28;20110;-62
2022/02/21 11:59:38;;;;;;;10.02;6.72;;;;;;;;;;10537399;28;20507;-61
2022/02/21 12:04:58;;;;;;;15.50;7.20;;;;;;;;;;10536026;28;20034;-66
2022/02/21 12:10:22;;;;;;;11.95;7.53;;;;;;;;;;10536953;28;20038;-63
2022/02/21 12:15:24;;;;;;;15.07;7.38;;;;;;;;;;10534847;28;20107;-61
2022/02/21 12:20:28;;;;;;;11.93;6.90;;;;;;;;;;10536035;28;20032;-62
2022/02/21 12:25:28;;;;;;;11.10;6.72;;;;;;;;;;10536212;28;20112;-65
2022/02/21 12:30:36;;;;;;;15.60;8.10;;;;;;;;;;10535849;28;20089;-68
2022/02/21 12:35:47;;;;;;;17.40;7.88;;;;;;;;;;10536613;28;20027;-68
2022/02/21 12:40:51;;;;;;;15.40;8.68;;;;;;;;;;10535275;28;20475;-67
2022/02/21 12:45:52;;;;;;;12.23;8.02;;;;;;;;;;10535866;28;20275;-62
2022/02/21 12:50:52;;;;;;;13.15;8.20;;;;;;;;;;10533455;28;20490;-66
2022/02/21 12:55:58;;;;;;;15.07;8.53;;;;;;;;;;10530928;28;20145;-63
2022/02/21 13:01:00;;;;;;;14.32;8.00;;;;;;;;;;10535171;28;20044;-67
2022/02/21 13:06:00;;;;;;;16.27;8.60;;;;;;;;;;10534942;28;20039;-64
2022/02/21 13:11:01;;;;;;;13.63;7.93;;;;;;;;;;10535342;28;20318;-66
2022/02/21 13:16:04;;;;;;;13.33;8.03;;;;;;;;;;10533530;28;20593;-64
2022/02/21 13:21:05;;;;;;;12.55;8.40;;;;;;;;;;10533751;28;20485;-63
2022/02/21 13:26:06;;;;;;;14.35;7.60;;;;;;;;;;10533383;28;20454;-64
2022/02/21 13:31:07;;;;;;;12.03;7.87;;;;;;;;;;10533654;28;20032;-67
2022/02/21 13:36:07;;;;;;;12.15;8.20;;;;;;;;;;10534053;28;20028;-64
2022/02/21 13:41:08;;;;;;;15.93;8.73;;;;;;;;;;10533650;28;20429;-62
2022/02/21 13:46:08;;;;;;;13.67;8.47;;;;;;;;;;10533783;28;20452;-62
2022/02/21 13:51:16;;;;;;;11.90;7.80;;;;;;;;;;10533811;28;20028;-62
2022/02/21 13:56:18;;;;;;;19.30;8.27;;;;;;;;;;10533619;28;20361;-63
2022/02/21 14:01:29;;;;;;;14.68;7.90;;;;;;;;;;10533160;28;20469;-62
2022/02/21 14:06:34;;;;;;;14.20;8.63;;;;;;;;;;10531328;28;20563;-61
2022/02/21 14:11:35;;;;;;;16.05;8.13;;;;;;;;;;10532246;28;20063;-65
2022/02/21 14:16:35;;;;;;;17.20;9.57;;;;;;;;;;10532556;28;20073;-65
2022/02/21 14:21:36;;;;;;;19.08;9.02;;;;;;;;;;10532010;28;20031;-61
2022/02/21 14:26:37;;;;;;;17.70;9.60;;;;;;;;;;10532973;28;20107;-61
2022/02/21 14:31:37;;;;;;;18.52;10.55;;;;;;;;;;10537534;28;20107;-64
2022/02/21 14:36:38;;;;;;;19.38;10.05;;;;;;;;;;10540085;28;20035;-63
2022/02/21 14:41:38;;;;;;;19.40;9.57;;;;;;;;;;10538734;28;20085;-65
2022/02/21 14:46:39;;;;;;;15.02;8.82;;;;;;;;;;10540370;28;20843;-61
2022/02/21 14:51:39;;;;;;;16.10;10.13;;;;;;;;;;10538300;28;20024;-66
2022/02/21 14:56:39;;;;;;;16.30;9.83;;;;;;;;;;10540161;28;20541;-64
2022/02/21 15:01:40;;;;;;;17.50;9.27;;;;;;;;;;10539594;28;20056;-61
2022/02/21 15:06:40;;;;;;;15.57;9.40;;;;;;;;;;10539760;28;20543;-61
2022/02/21 15:11:44;;;;;;;18.95;9.70;;;;;;;;;;10540112;28;20028;-61
2022/02/21 15:16:45;;;;;;;14.27;8.05;;;;;;;;;;10539114;28;20027;-62
2022/02/21 15:21:45;;;;;;;14.95;8.40;;;;;;;;;;10538112;28;20039;-60
2022/02/21 15:26:46;;;;;;;16.02;9.05;;;;;;;;;;10539079;28;20061;-61
2022/02/21 15:31:46;;;;;;;14.93;8.27;;;;;;;;;;10538954;28;20031;-61
2022/02/21 15:36:47;;;;;;;15.38;8.93;;;;;;;;;;10538646;28;20816;-61
2022/02/21 15:41:48;;;;;;;15.05;8.32;;;;;;;;;;10537878;28;20425;-62
2022/02/21 15:46:48;;;;;;;16.92;7.95;;;;;;;;;;10538380;28;20073;-63
2022/02/21 15:51:48;;;;;;;13.43;7.47;;;;;;;;;;10538198;28;20547;-61
2022/02/21 15:56:49;;;;;;;15.00;7.97;;;;;;;;;;10537857;28;20063;-61
2022/02/21 16:01:49;;;;;;;11.90;7.90;;;;;;;;;;10537566;28;20148;-64
2022/02/21 16:06:51;;;;;;;12.90;7.00;;;;;;;;;;10538075;28;20024;-60
2022/02/21 16:11:51;;;;;;;12.57;7.65;;;;;;;;;;10537255;28;20028;-61
2022/02/21 16:16:52;;;;;;;13.10;7.73;;;;;;;;;;10537077;28;20025;-61
2022/02/21 16:21:52;;;;;;;11.65;7.65;;;;;;;;;;10536859;28;21029;-61
2022/02/21 16:26:53;;;;;;;11.17;7.70;;;;;;;;;;10536707;28;20035;-60
2022/02/21 16:31:55;;;;;;;11.98;8.18;;;;;;;;;;10536545;28;21003;-61
2022/02/21 16:36:56;;;;;;;11.82;7.43;;;;;;;;;;10536891;28;20036;-60
2022/02/21 16:41:56;;;;;;;13.80;7.20;;;;;;;;;;10536103;28;20475;-61
2022/02/21 16:46:57;;;;;;;11.33;7.50;;;;;;;;;;10535800;28;20481;-61
2022/02/21 16:51:57;;;;;;;13.30;8.27;;;;;;;;;;10534968;28;20036;-68
2022/02/21 16:56:57;;;;;;;11.77;7.40;;;;;;;;;;10532335;28;20056;-66
2022/02/21 17:01:58;;;;;;;11.07;7.38;;;;;;;;;;10535069;28;20036;-60
2022/02/21 17:06:58;;;;;;;17.38;7.75;;;;;;;;;;10535547;28;20046;-61
2022/02/21 17:11:59;;;;;;;12.67;7.73;;;;;;;;;;10534978;28;20464;-67
2022/02/21 17:16:59;;;;;;;11.47;7.17;;;;;;;;;;10534725;28;20119;-68
2022/02/21 17:22:01;;;;;;;14.50;7.43;;;;;;;;;;10534647;28;20556;-68
2022/02/21 17:27:02;;;;;;;12.00;7.20;;;;;;;;;;10534402;28;20069;-67
2022/02/21 17:32:03;;;;;;;16.08;8.13;;;;;;;;;;10534800;28;20448;-63
2022/02/21 17:37:03;;;;;;;11.25;8.00;;;;;;;;;;10533990;28;20024;-65
2022/02/21 17:42:04;;;;;;;14.63;7.67;;;;;;;;;;10533903;28;20032;-60
2022/02/21 17:47:04;;;;;;;14.73;7.43;;;;;;;;;;10533778;28;20441;-60
2022/02/21 17:52:07;;;;;;;15.90;7.65;;;;;;;;;;10534003;28;20484;-60
2022/02/21 17:57:07;;;;;;;14.63;8.55;;;;;;;;;;10533279;28;20502;-61
2022/02/21 18:02:08;;;;;;;12.13;8.03;;;;;;;;;;10533244;28;20031;-60
2022/02/21 18:07:09;;;;;;;10.97;7.90;;;;;;;;;;10547212;28;20115;-60
2022/02/21 18:12:10;;;;;;;12.00;8.35;;;;;;;;;;10547153;28;20060;-61
2022/02/21 18:17:10;;;;;;;15.68;8.82;;;;;;;;;;10547266;28;20052;-62
2022/02/21 18:22:10;;;;;;;11.87;8.43;;;;;;;;;;10547726;28;20031;-60
2022/02/21 18:27:12;;;;;;;13.27;8.67;;;;;;;;;;10546909;28;20456;-62
2022/02/21 18:32:13;;;;;;;17.77;8.75;;;;;;;;;;10547203;28;20031;-61
2022/02/21 18:37:15;;;;;;;29.10;11.18;;;;;;;;;;10546406;28;20827;-61
2022/02/21 18:42:16;;;;;;;21.45;9.43;;;;;;;;;;10545467;28;20529;-62
2022/02/21 18:47:16;;;;;;;16.85;9.73;;;;;;;;;;10546465;28;20074;-61
2022/02/21 18:52:17;;;;;;;22.37;10.17;;;;;;;;;;10546539;28;20106;-61
2022/02/21 18:57:17;;;;;;;17.27;10.25;;;;;;;;;;10544595;28;20778;-66
2022/02/21 19:02:18;;;;;;;24.10;10.13;;;;;;;;;;10542669;28;20024;-64
2022/02/21 19:07:19;;;;;;;17.70;10.13;;;;;;;;;;10545047;28;20020;-69
2022/02/21 19:12:20;;;;;;;16.35;9.43;;;;;;;;;;10542809;28;20457;-64
2022/02/21 19:17:21;;;;;;;20.50;9.68;;;;;;;;;;10537713;28;20051;-65
2022/02/21 19:22:21;;;;;;;20.73;9.18;;;;;;;;;;10537920;28;20032;-63
2022/02/21 19:27:22;;;;;;;16.55;9.68;;;;;;;;;;10539235;28;20452;-64
2022/02/21 19:32:22;;;;;;;13.77;9.18;;;;;;;;;;10538822;28;20016;-64
2022/02/21 19:37:22;;;;;;;16.03;8.63;;;;;;;;;;10537398;28;20020;-62
2022/02/21 19:42:23;;;;;;;17.33;9.23;;;;;;;;;;10538051;28;20530;-62
2022/02/21 19:47:23;;;;;;;20.00;9.83;;;;;;;;;;10536393;28;20025;-62
2022/02/21 19:52:24;;;;;;;19.43;9.47;;;;;;;;;;10537007;28;20016;-63
2022/02/21 19:57:24;;;;;;;15.75;8.85;;;;;;;;;;10537194;28;20514;-70
2022/02/21 20:02:25;;;;;;;13.10;8.13;;;;;;;;;;10537328;28;20123;-71
2022/02/21 20:07:25;;;;;;;18.23;8.75;;;;;;;;;;10537479;28;20439;-68
2022/02/21 20:12:26;;;;;;;17.02;9.05;;;;;;;;;;10536897;28;20030;-67
2022/02/21 20:17:26;;;;;;;16.47;9.67;;;;;;;;;;10536505;28;20047;-70
2022/02/21 20:22:27;;;;;;;14.38;8.40;;;;;;;;;;10536804;28;20855;-69
2022/02/21 20:27:27;;;;;;;17.27;8.70;;;;;;;;;;10534806;28;20028;-70
2022/02/21 20:32:28;;;;;;;17.60;9.48;;;;;;;;;;10535825;28;20111;-65
2022/02/21 20:37:28;;;;;;;22.07;10.17;;;;;;;;;;10535695;28;20463;-70
2022/02/21 20:42:29;;;;;;;14.75;8.38;;;;;;;;;;10536104;28;20475;-63
2022/02/21 20:47:31;;;;;;;15.63;8.73;;;;;;;;;;10535356;28;20099;-64
2022/02/21 20:52:31;;;;;;;19.35;9.80;;;;;;;;;;10534285;28;20111;-64
2022/02/21 20:57:32;;;;;;;17.07;10.00;;;;;;;;;;10533839;28;20588;-63
2022/02/21 21:02:33;;;;;;;19.90;9.02;;;;;;;;;;10533527;28;20594;-66
2022/02/21 21:07:34;;;;;;;15.85;9.13;;;;;;;;;;10535607;28;20477;-65
2022/02/21 21:12:34;;;;;;;17.65;9.32;;;;;;;;;;10534898;28;20235;-68
2022/02/21 21:17:35;;;;;;;16.95;9.38;;;;;;;;;;10534754;28;20129;-68
2022/02/21 21:22:35;;;;;;;14.25;9.45;;;;;;;;;;10534576;28;20036;-73
2022/02/21 21:27:36;;;;;;;31.73;10.55;;;;;;;;;;10534796;28;20027;-73
2022/02/21 21:32:36;;;;;;;26.90;10.70;;;;;;;;;;10534323;28;20463;-71
2022/02/21 21:37:37;;;;;;;31.77;9.65;;;;;;;;;;10533611;28;20523;-63
2022/02/21 21:42:38;;;;;;;19.92;9.30;;;;;;;;;;10533868;28;20387;-62
2022/02/21 21:47:38;;;;;;;25.90;10.73;;;;;;;;;;10533714;28;20369;-65
2022/02/21 21:52:39;;;;;;;17.23;8.95;;;;;;;;;;10533642;28;20028;-63
2022/02/21 21:57:39;;;;;;;19.75;9.73;;;;;;;;;;10532936;28;20132;-62
2022/02/21 22:02:40;;;;;;;18.15;9.25;;;;;;;;;;10533298;28;20028;-68
2022/02/21 22:07:41;;;;;;;22.67;8.88;;;;;;;;;;10533386;28;20418;-70
2022/02/21 22:12:41;;;;;;;25.80;10.55;;;;;;;;;;10532847;28;20024;-62
2022/02/21 22:17:42;;;;;;;19.83;9.32;;;;;;;;;;10533686;28;20065;-67
2022/02/21 22:22:42;;;;;;;17.37;9.97;;;;;;;;;;10532709;28;20035;-62
2022/02/21 22:27:43;;;;;;;18.10;9.90;;;;;;;;;;10532717;28;20456;-61
2022/02/21 22:32:43;;;;;;;19.07;9.97;;;;;;;;;;10533340;28;20102;-62
2022/02/21 22:37:46;;;;;;;18.25;9.60;;;;;;;;;;10532682;28;20028;-68
2022/02/21 22:42:46;;;;;;;18.10;10.38;;;;;;;;;;10532941;28;20038;-68
2022/02/21 22:47:46;;;;;;;24.03;10.07;;;;;;;;;;10532465;28;20112;-64
2022/02/21 22:52:47;;;;;;;21.33;11.02;;;;;;;;;;10538828;28;20421;-62
2022/02/21 22:57:47;;;;;;;18.13;10.00;;;;;;;;;;10540410;28;20140;-63
2022/02/21 23:02:48;;;;;;;23.50;10.40;;;;;;;;;;10539508;28;20465;-62
2022/02/21 23:08:00;;;;;;;16.33;10.03;;;;;;;;;;10537230;28;20020;-61
2022/02/21 23:13:01;;;;;;;23.88;10.50;;;;;;;;;;10539641;28;20028;-61
2022/02/21 23:18:02;;;;;;;17.48;9.93;;;;;;;;;;10539291;28;20530;-64
2022/02/21 23:23:04;;;;;;;19.50;9.43;;;;;;;;;;10538043;28;20032;-62
2022/02/21 23:28:04;;;;;;;14.43;9.82;;;;;;;;;;10539635;28;20089;-64
2022/02/21 23:33:05;;;;;;;21.67;10.67;;;;;;;;;;10538920;28;20091;-66
2022/02/21 23:38:05;;;;;;;19.50;10.38;;;;;;;;;;10539243;28;20559;-65
2022/02/21 23:43:07;;;;;;;16.00;10.50;;;;;;;;;;10538715;28;20028;-62
2022/02/21 23:48:07;;;;;;;20.13;10.45;;;;;;;;;;10538858;28;20031;-63
2022/02/21 23:53:07;;;;;;;17.20;10.43;;;;;;;;;;10538331;28;20106;-62
2022/02/21 23:58:08;;;;;;;17.70;10.40;;;;;;;;;;10537633;28;20457;-65
